createdAt,value
2023-04-22T00:02:08.633Z,90.93
2023-04-22T00:04:10.614Z,91.11
2023-04-22T00:08:12.885Z,91.34
2023-04-22T00:10:14.406Z,91.63
2023-04-22T00:14:16.840Z,92.21
2023-04-22T00:18:19.072Z,92.14
2023-04-22T00:20:20.960Z,92.13
2023-04-22T00:24:24.126Z,92.3
2023-04-22T00:26:25.531Z,91.98
2023-04-22T00:30:28.184Z,92.15
2023-04-22T00:34:30.445Z,92.75
2023-04-22T00:36:31.786Z,93
2023-04-22T00:40:34.796Z,92.93
2023-04-22T00:44:37.656Z,93.17
2023-04-22T00:46:38.871Z,93.42
2023-04-22T00:50:41.279Z,93.54
2023-04-22T00:52:42.337Z,93.42
2023-04-22T00:54:43.665Z,93.35
2023-04-22T00:56:44.632Z,93.16
2023-04-22T01:00:48.099Z,93.24
2023-04-22T01:02:49.636Z,93.22
2023-04-22T01:04:50.979Z,93.16
2023-04-22T01:06:52.199Z,93.33
2023-04-22T01:08:53.467Z,93.58
2023-04-22T01:12:56.974Z,93.88
2023-04-22T01:14:58.417Z,93.9
2023-04-22T01:16:59.759Z,93.92
2023-04-22T01:19:01.554Z,93.69
2023-04-22T01:23:04.447Z,93.25
2023-04-22T01:25:05.778Z,93.15
2023-04-22T01:29:08.927Z,93.35
2023-04-22T01:33:11.235Z,93.73
2023-04-22T01:35:12.445Z,93.79
2023-04-22T01:39:15.449Z,93.97
2023-04-22T01:43:18.919Z,93.86
2023-04-22T01:45:20.178Z,93.91
2023-04-22T01:49:22.709Z,93.95
2023-04-22T01:51:24.194Z,94.12
2023-04-22T01:55:27.642Z,94.3
2023-04-22T01:59:30.806Z,94.32
2023-04-22T02:01:31.983Z,94.38
2023-04-22T02:05:34.857Z,94.27
2023-04-22T02:07:36.110Z,94.34
2023-04-22T02:11:39.197Z,94.54
2023-04-22T02:15:42.050Z,94.33
2023-04-22T02:17:43.580Z,94.39
2023-04-22T02:21:46.348Z,94.72
2023-04-22T02:25:48.469Z,94.75
2023-04-22T02:27:49.589Z,94.68
2023-04-22T02:32:01.391Z,94.89
2023-04-22T02:33:53.487Z,94.72
2023-04-22T02:37:56.316Z,94.67
2023-04-22T02:41:59.062Z,94.6
2023-04-22T02:44:00.931Z,94.62
2023-04-22T02:48:03.787Z,94.67
2023-04-22T02:50:05.604Z,94.64
2023-04-22T02:54:08.188Z,94.8
2023-04-22T02:58:11.378Z,94.88
2023-04-22T03:00:13.246Z,94.9
2023-04-22T03:04:16.364Z,95.04
2023-04-22T03:08:19.855Z,95.02
2023-04-22T03:10:21.286Z,95.04
2023-04-22T03:14:24.736Z,95.17
2023-04-22T03:16:25.872Z,95.16
2023-04-22T03:18:27.456Z,95.32
2023-04-22T03:20:28.687Z,95.64
2023-04-22T03:24:31.826Z,95.61
2023-04-22T03:26:33.708Z,95.61
2023-04-22T03:30:35.878Z,95.75
2023-04-22T03:32:37.449Z,95.72
2023-04-22T03:36:40.427Z,95.91
2023-04-22T03:40:43.103Z,95.83
2023-04-22T03:42:45.023Z,95.83
2023-04-22T03:46:47.382Z,95.78
2023-04-22T03:52:52.887Z,95.7
2023-04-22T03:56:56.410Z,95.67
2023-04-22T03:58:57.455Z,95.61
2023-04-22T04:00:59.123Z,95.67
2023-04-22T04:03:00.561Z,95.62
2023-04-22T04:07:03.367Z,95.63
2023-04-22T04:09:04.705Z,95.66
2023-04-22T04:11:06.270Z,95.61
2023-04-22T04:13:07.831Z,95.69
2023-04-22T04:15:09.114Z,95.61
2023-04-22T04:19:11.870Z,95.65
2023-04-22T04:21:13.183Z,95.73
2023-04-22T04:23:15.041Z,95.87
2023-04-22T04:25:16.262Z,95.9
2023-04-22T04:29:18.505Z,95.9
2023-04-22T04:31:20.388Z,95.99
2023-04-22T04:35:22.866Z,95.96
2023-04-22T04:39:24.952Z,96.01
2023-04-22T04:41:26.559Z,96
2023-04-22T04:45:29.282Z,96.35
2023-04-22T04:49:32.214Z,96.35
2023-04-22T04:51:34.081Z,95.93
2023-04-22T04:55:36.657Z,95.52
2023-04-22T04:57:38.438Z,95.34
2023-04-22T05:01:40.224Z,95.17
2023-04-22T05:05:42.896Z,95.34
2023-04-22T05:07:45.904Z,95.09
2023-04-22T05:11:48.608Z,94.36
2023-04-22T05:13:49.970Z,92.21
2023-04-22T05:17:52.344Z,92.6
2023-04-22T05:22:39.044Z,92.44
2023-04-22T05:26:42.490Z,92.43
2023-04-22T05:28:43.473Z,92.99
2023-04-22T05:32:46.418Z,93.49
2023-04-22T05:34:48.227Z,93.85
2023-04-22T05:38:52.011Z,94.39
2023-04-22T05:42:55.493Z,94.47
2023-04-22T05:44:57.206Z,94.57
2023-04-22T05:49:00.882Z,94.55
2023-04-22T05:51:02.380Z,94.27
2023-04-22T05:55:04.901Z,93.96
2023-04-22T05:59:17.193Z,93.29
2023-04-22T06:01:10.249Z,93.19
2023-04-22T06:05:13.127Z,92.89
2023-04-22T06:09:16.032Z,92.17
2023-04-22T06:11:17.718Z,91.63
2023-04-22T06:15:28.129Z,90.87
2023-04-22T06:17:21.721Z,90.99
2023-04-22T06:21:24.802Z,90.78
2023-04-22T06:23:26.412Z,90.24
2023-04-22T06:27:29.753Z,90.35
2023-04-22T06:29:30.962Z,90.55
2023-04-22T06:31:32.434Z,90.67
2023-04-22T06:33:33.631Z,90.9
2023-04-22T06:37:36.230Z,90.64
2023-04-22T06:39:38.059Z,90.17
2023-04-22T06:43:40.719Z,89.29
2023-04-22T06:47:43.868Z,89.24
2023-04-22T06:49:44.763Z,88.84
2023-04-22T06:53:48.445Z,88.44
2023-04-22T06:57:51.508Z,88.88
2023-04-22T06:59:53.153Z,88.64
2023-04-22T07:03:56.209Z,90.98
2023-04-22T07:05:57.558Z,89.66
2023-04-22T07:10:00.931Z,89.93
2023-04-22T07:14:03.494Z,88.03
2023-04-22T07:16:05.020Z,88.07
2023-04-22T07:20:07.882Z,87.42
2023-04-22T07:22:09.323Z,87.43
2023-04-22T07:26:11.992Z,84.93
2023-04-22T07:30:14.439Z,81.97
2023-04-22T07:32:15.512Z,79.14
2023-04-22T07:36:18.064Z,79.94
2023-04-22T07:40:21.629Z,79.96
2023-04-22T07:42:22.940Z,80.42
2023-04-22T07:46:25.980Z,78.96
2023-04-22T07:48:26.999Z,79.44
2023-04-22T07:52:29.037Z,74.55
2023-04-22T07:56:32.001Z,73.8
2023-04-22T07:58:33.233Z,68.2
2023-04-22T08:02:36.364Z,67.88
2023-04-22T08:04:37.385Z,66.21
2023-04-22T08:08:39.238Z,62.98
2023-04-22T08:12:42.430Z,63.02
2023-04-22T08:14:43.820Z,64.49
2023-04-22T08:18:46.257Z,66.52
2023-04-22T08:22:49.554Z,62.62
2023-04-22T08:24:50.958Z,61.49
2023-04-22T08:28:53.504Z,62.15
2023-04-22T08:30:55.310Z,67.5
2023-04-22T08:32:56.147Z,67.22
2023-04-22T08:35:03.751Z,67.16
2023-04-22T08:39:00.131Z,67.53
2023-04-22T08:41:01.853Z,67.31
2023-04-22T08:43:03.555Z,64.31
2023-04-22T08:45:04.735Z,62.87
2023-04-22T08:47:06.184Z,63.93
2023-04-22T08:51:08.347Z,58.8
2023-04-22T08:53:10.285Z,59.99
2023-04-22T08:55:11.026Z,55.67
2023-04-22T08:57:13.119Z,55.79
2023-04-22T09:01:16.185Z,52.08
2023-04-22T09:03:17.379Z,52.78
2023-04-22T09:07:20.004Z,51.86
2023-04-22T09:11:48.229Z,58.29
2023-04-22T09:13:41.819Z,53.22
2023-04-22T09:17:26.812Z,55.33
2023-04-22T09:21:29.736Z,53.79
2023-04-22T09:23:30.804Z,50.14
2023-04-22T09:27:34.035Z,47.46
2023-04-22T09:29:35.727Z,49.66
2023-04-22T09:33:38.312Z,49.18
2023-04-22T09:37:49.066Z,47.95
2023-04-22T09:39:42.357Z,54.02
2023-04-22T09:43:44.722Z,49.43
2023-04-22T09:45:46.267Z,49.38
2023-04-22T09:49:48.482Z,45.01
2023-04-22T09:53:50.821Z,47.93
2023-04-22T09:55:51.964Z,43.84
2023-04-22T09:59:53.795Z,51.91
2023-04-22T10:03:56.168Z,47.21
2023-04-22T10:05:57.568Z,46.14
2023-04-22T10:09:59.750Z,43.71
2023-04-22T10:12:01.017Z,40.1
2023-04-22T10:16:03.673Z,41.23
2023-04-22T10:20:05.820Z,41.48
2023-04-22T10:22:07.062Z,43.66
2023-04-22T10:26:09.826Z,49.94
2023-04-22T10:28:11.245Z,46.77
2023-04-22T10:32:14.037Z,45.68
2023-04-22T10:36:16.384Z,50.6
2023-04-22T10:38:17.932Z,50.4
2023-04-22T10:42:21.741Z,46.15
2023-04-22T10:48:24.817Z,48.06
2023-04-22T10:52:27.150Z,50.88
2023-04-22T10:54:30.493Z,52.03
2023-04-22T10:58:31.285Z,49.06
2023-04-22T11:02:34.585Z,49.21
2023-04-22T11:04:35.944Z,47.08
2023-04-22T11:08:38.133Z,45.57
2023-04-22T11:10:40.488Z,50.57
2023-04-22T11:14:43.004Z,44.88
2023-04-22T11:18:45.627Z,45.26
2023-04-22T11:20:46.939Z,48.03
2023-04-22T11:24:48.976Z,46.06
2023-04-22T11:26:50.157Z,49.06
2023-04-22T11:30:52.987Z,50.93
2023-04-22T11:34:55.751Z,48.98
2023-04-22T11:36:57.242Z,47.36
2023-04-22T11:40:59.717Z,44.42
2023-04-22T11:45:03.225Z,45.66
2023-04-22T11:47:04.323Z,48.79
2023-04-22T11:51:07.396Z,48.48
2023-04-22T11:53:08.320Z,48.38
2023-04-22T11:57:10.278Z,48.55
2023-04-22T12:01:13.219Z,48.04
2023-04-22T12:03:15.334Z,44.05
2023-04-22T12:05:59.608Z,45.68
2023-04-22T12:08:00.896Z,42.97
2023-04-22T12:12:03.555Z,42.43
2023-04-22T12:14:04.852Z,48.35
2023-04-22T12:18:07.036Z,46.93
2023-04-22T12:20:08.868Z,42.45
2023-04-22T12:24:11.610Z,46.89
2023-04-22T12:28:14.028Z,44.02
2023-04-22T12:30:14.805Z,42.96
2023-04-22T12:34:17.826Z,44.31
2023-04-22T12:38:20.525Z,42.62
2023-04-22T12:40:21.808Z,41.99
2023-04-22T12:44:25.211Z,43.47
2023-04-22T12:46:25.900Z,40.7
2023-04-22T12:50:28.705Z,39.42
2023-04-22T12:54:31.000Z,41.9
2023-04-22T12:56:31.941Z,43.07
2023-04-22T13:00:34.979Z,40.92
2023-04-22T13:06:39.141Z,41.61
2023-04-22T13:10:40.856Z,45.25
2023-04-22T13:12:42.483Z,43.54
2023-04-22T13:16:45.386Z,40.25
2023-04-22T13:20:47.716Z,38.64
2023-04-22T13:22:48.756Z,35.94
2023-04-22T13:26:51.539Z,38.41
2023-04-22T13:28:52.907Z,39.47
2023-04-22T13:32:55.063Z,40.5
2023-04-22T13:36:57.428Z,40.32
2023-04-22T13:38:58.457Z,41.28
2023-04-22T13:41:01.267Z,38.28
2023-04-22T13:43:01.094Z,42
2023-04-22T13:45:02.060Z,40.64
2023-04-22T13:49:04.553Z,40.5
2023-04-22T13:51:06.132Z,39.81
2023-04-22T13:53:07.301Z,40.06
2023-04-22T13:55:08.756Z,41.49
2023-04-22T13:59:11.679Z,41.24
2023-04-22T14:01:12.966Z,42.16
2023-04-22T14:05:15.335Z,43.34
2023-04-22T14:09:19.192Z,40.67
2023-04-22T14:11:20.511Z,41.29
2023-04-22T14:15:22.372Z,40.52
2023-04-22T14:17:23.758Z,42.65
2023-04-22T14:21:27.442Z,42.15
2023-04-22T14:25:28.768Z,42.35
2023-04-22T14:27:29.816Z,45.5
2023-04-22T14:29:31.490Z,44.25
2023-04-22T14:35:34.770Z,41.47
2023-04-22T14:37:36.398Z,43.65
2023-04-22T14:41:39.094Z,43.24
2023-04-22T14:43:40.209Z,41.16
2023-04-22T14:47:42.390Z,40.59
2023-04-22T14:51:44.678Z,40.72
2023-04-22T14:53:45.960Z,40.95
2023-04-22T14:57:48.625Z,40.69
2023-04-22T15:01:51.252Z,43.32
2023-04-22T15:03:52.442Z,43.77
2023-04-22T15:07:54.320Z,42.69
2023-04-22T15:09:55.721Z,44.67
2023-04-22T15:13:58.298Z,43.2
2023-04-22T15:18:00.344Z,42.47
2023-04-22T15:20:01.498Z,42.72
2023-04-22T15:22:02.482Z,42.54
2023-04-22T15:26:04.999Z,46.68
2023-04-22T15:28:05.914Z,47.81
2023-04-22T15:30:07.683Z,47.89
2023-04-22T15:34:09.682Z,48.6
2023-04-22T15:36:10.623Z,48.74
2023-04-22T15:40:12.870Z,49.04
2023-04-22T15:42:14.238Z,49.6
2023-04-22T15:46:16.307Z,49.41
2023-04-22T15:50:18.776Z,49.98
2023-04-22T15:52:20.433Z,50.52
2023-04-22T15:56:23.495Z,50.41
2023-04-22T16:00:26.345Z,50.27
2023-04-22T16:02:27.978Z,51.55
2023-04-22T16:06:30.805Z,51.59
2023-04-22T16:08:31.691Z,51.54
2023-04-22T16:12:34.842Z,52.19
2023-04-22T16:16:37.005Z,52.2
2023-04-22T16:18:38.392Z,52.21
2023-04-22T16:22:41.143Z,52.69
2023-04-22T16:24:44.310Z,52.81
2023-04-22T16:28:45.061Z,53.76
2023-04-22T16:32:48.634Z,53.87
2023-04-22T16:34:49.642Z,53.43
2023-04-22T16:38:52.935Z,52.58
2023-04-22T16:44:56.593Z,52.21
2023-04-22T16:48:59.082Z,51.56
2023-04-22T16:51:00.295Z,52.38
2023-04-22T16:53:01.396Z,51.36
2023-04-22T16:55:02.319Z,52.12
2023-04-22T16:59:05.227Z,51.94
2023-04-22T17:01:06.560Z,51.32
2023-04-22T17:05:08.782Z,50.62
2023-04-22T17:07:09.836Z,51.48
2023-04-22T17:11:11.978Z,49.67
2023-04-22T17:15:13.866Z,50.72
2023-04-22T17:17:15.438Z,50.43
2023-04-22T17:21:18.055Z,51.16
2023-04-22T17:23:18.928Z,51.15
2023-04-22T17:27:21.556Z,52.24
2023-04-22T17:31:23.657Z,52.8
2023-04-22T17:33:25.261Z,52.78
2023-04-22T17:37:28.077Z,52.7
2023-04-22T17:41:31.285Z,55.11
2023-04-22T17:43:32.433Z,54.81
2023-04-22T17:47:35.488Z,55.24
2023-04-22T17:49:37.131Z,55.4
2023-04-22T17:53:39.889Z,56.27
2023-04-22T17:57:42.693Z,56.42
2023-04-22T17:59:44.165Z,58.65
2023-04-22T18:03:47.833Z,59.16
2023-04-22T18:05:48.628Z,59.24
2023-04-22T18:09:50.940Z,59.97
2023-04-22T18:13:53.282Z,60.38
2023-04-22T18:15:54.337Z,60.96
2023-04-22T18:20:06.311Z,60.79
2023-04-22T18:23:59.796Z,61.57
2023-04-22T18:26:01.460Z,61.46
2023-04-22T18:30:04.167Z,63.03
2023-04-22T18:32:05.357Z,63.61
2023-04-22T18:36:07.706Z,59.53
2023-04-22T18:40:10.128Z,58.96
2023-04-22T18:42:11.331Z,59.01
2023-04-22T18:46:14.174Z,58.76
2023-04-22T18:48:15.802Z,58.93
2023-04-22T18:51:00.723Z,58.88
2023-04-22T18:53:01.636Z,58.83
2023-04-22T18:57:04.591Z,58.95
2023-04-22T18:59:06.278Z,58.77
2023-04-22T19:03:09.104Z,61.65
2023-04-22T19:07:11.355Z,60.9
2023-04-22T19:09:12.988Z,61.16
2023-04-22T19:13:28.411Z,60.3
2023-04-22T19:17:19.558Z,60.73
2023-04-22T19:19:20.739Z,60.02
2023-04-22T19:23:23.306Z,60.2
2023-04-22T19:25:24.609Z,59.81
2023-04-22T19:29:27.394Z,59.51
2023-04-22T19:33:30.214Z,58.32
2023-04-22T19:35:31.972Z,58.52
2023-04-22T19:39:35.057Z,59.24
2023-04-22T19:41:36.345Z,59.19
2023-04-22T19:45:38.699Z,58.83
2023-04-22T19:49:40.872Z,58.58
2023-04-22T19:51:41.502Z,58.18
2023-04-22T19:55:43.487Z,58.49
2023-04-22T19:59:47.015Z,59.18
2023-04-22T20:01:48.489Z,57.99
2023-04-22T20:05:50.706Z,56.47
2023-04-22T20:07:51.564Z,56.31
2023-04-22T20:11:54.780Z,56.68
2023-04-22T20:15:58.447Z,57.58
2023-04-22T20:17:59.802Z,58.35
2023-04-22T20:20:01.602Z,57.82
2023-04-22T20:22:02.515Z,58.03
2023-04-22T20:24:03.844Z,58.4
2023-04-22T20:28:06.486Z,58.78
2023-04-22T20:32:08.736Z,60.08
2023-04-22T20:34:10.254Z,60.98
2023-04-22T20:38:12.486Z,63.14
2023-04-22T20:40:13.335Z,63.47
2023-04-22T20:44:15.876Z,65.16
2023-04-22T20:48:18.252Z,66.19
2023-04-22T20:50:19.727Z,66.65
2023-04-22T20:54:28.787Z,67.65
2023-04-22T20:58:26.079Z,68.53
2023-04-22T21:00:27.353Z,68.93
2023-04-22T21:04:30.639Z,69.62
2023-04-22T21:06:32.170Z,70.28
2023-04-22T21:10:34.168Z,70.43
2023-04-22T21:14:37.250Z,70.92
2023-04-22T21:16:39.053Z,71.15
2023-04-22T21:20:41.344Z,71.81
2023-04-22T21:22:42.685Z,71.79
2023-04-22T21:26:45.293Z,72.24
2023-04-22T21:30:48.013Z,72.81
2023-04-22T21:32:49.110Z,72.86
2023-04-22T21:36:52.094Z,73.23
2023-04-22T21:40:55.271Z,73.7
2023-04-22T21:42:56.702Z,74.07
2023-04-22T21:46:59.956Z,74.47
2023-04-22T21:49:01.511Z,74.78
2023-04-22T21:53:04.800Z,74.67
2023-04-22T21:57:07.101Z,74.81
2023-04-22T21:59:08.338Z,75.07
2023-04-22T22:03:11.906Z,74.88
2023-04-22T22:05:12.863Z,74.97
2023-04-22T22:09:15.411Z,75.48
2023-04-22T22:13:18.108Z,76.05
2023-04-22T22:15:19.174Z,76.04
2023-04-22T22:19:22.183Z,76.44
2023-04-22T22:25:26.147Z,77.31
2023-04-22T22:29:28.400Z,77.4
2023-04-22T22:31:29.325Z,77.62
2023-04-22T22:35:31.930Z,77.98
2023-04-22T22:39:34.449Z,78.09
2023-04-22T22:41:36.062Z,78.4
2023-04-22T22:45:38.217Z,78.25
2023-04-22T22:47:39.891Z,77.9
2023-04-22T22:51:41.986Z,77.89
2023-04-22T22:55:44.852Z,78.12
2023-04-22T22:57:45.990Z,78.15
2023-04-22T23:01:57.451Z,78.51
2023-04-22T23:03:51.380Z,78.59
2023-04-22T23:07:54.506Z,78.91
2023-04-22T23:11:57.119Z,78.88
2023-04-22T23:13:58.332Z,79.16
2023-04-22T23:18:00.677Z,79.38
2023-04-22T23:22:03.293Z,79.42
2023-04-22T23:24:04.844Z,79.53
2023-04-22T23:28:07.333Z,79.69
2023-04-22T23:30:08.230Z,79.6
2023-04-22T23:34:11.652Z,80.09
2023-04-22T23:38:14.627Z,80.52
2023-04-22T23:40:15.805Z,80.76
2023-04-22T23:44:18.142Z,81.3
2023-04-22T23:46:19.850Z,81.53
2023-04-22T23:50:22.004Z,81.58
2023-04-22T23:54:24.889Z,81.7
2023-04-22T23:56:26.716Z,82.04
